createdAt,value
2023-03-17T00:01:12.381Z,3.26
2023-03-17T00:03:39.120Z,3.19
2023-03-17T00:06:05.813Z,3.16
2023-03-17T00:08:32.397Z,3.14
2023-03-17T00:10:58.849Z,3.13
2023-03-17T00:13:27.553Z,3.10
2023-03-17T00:15:54.051Z,3.04
2023-03-17T00:18:20.581Z,3.10
2023-03-17T00:20:47.849Z,3.10
2023-03-17T00:23:14.734Z,3.03
2023-03-17T00:25:41.151Z,2.93
2023-03-17T00:28:07.744Z,2.90
2023-03-17T00:30:34.246Z,2.89
2023-03-17T00:33:00.834Z,2.85
2023-03-17T00:35:27.891Z,2.44
2023-03-17T00:37:54.595Z,2.26
2023-03-17T00:40:21.097Z,2.38
2023-03-17T00:42:47.541Z,2.63
2023-03-17T00:45:14.004Z,2.47
2023-03-17T00:47:40.785Z,2.41
2023-03-17T00:50:09.828Z,2.25
2023-03-17T00:52:36.276Z,2.32
2023-03-17T00:55:04.053Z,2.20
2023-03-17T00:57:30.621Z,2.30
2023-03-17T00:59:57.502Z,2.31
2023-03-17T01:02:23.971Z,2.46
2023-03-17T01:04:59.789Z,2.30
2023-03-17T01:07:30.442Z,2.29
2023-03-17T01:09:56.857Z,2.22
2023-03-17T01:12:24.571Z,2.03
2023-03-17T01:14:51.396Z,2.05
2023-03-17T01:17:24.027Z,2.15
2023-03-17T01:19:50.437Z,2.20
2023-03-17T01:22:18.791Z,2.20
2023-03-17T01:24:47.128Z,2.21
2023-03-17T01:27:14.782Z,2.24
2023-03-17T01:29:43.452Z,2.17
2023-03-17T01:32:09.962Z,2.07
2023-03-17T01:34:36.565Z,1.93
2023-03-17T01:37:03.218Z,1.85
2023-03-17T01:39:29.692Z,2.01
2023-03-17T01:41:56.146Z,2.11
2023-03-17T01:44:22.882Z,2.13
2023-03-17T01:46:49.382Z,2.14
2023-03-17T01:49:15.922Z,2.21
2023-03-17T01:51:44.737Z,1.82
2023-03-17T01:54:11.177Z,1.80
2023-03-17T01:56:37.810Z,1.81
2023-03-17T01:59:04.829Z,1.96
2023-03-17T02:01:31.302Z,1.98
2023-03-17T02:03:58.527Z,1.90
2023-03-17T02:06:25.044Z,1.92
2023-03-17T02:08:51.732Z,1.81
2023-03-17T02:11:18.182Z,1.91
2023-03-17T02:13:44.892Z,1.95
2023-03-17T02:16:11.690Z,1.97
2023-03-17T02:18:38.284Z,1.98
2023-03-17T02:21:06.140Z,1.78
2023-03-17T02:23:32.988Z,1.66
2023-03-17T02:25:59.776Z,1.75
2023-03-17T02:28:27.649Z,1.70
2023-03-17T02:30:54.389Z,1.56
2023-03-17T02:33:21.271Z,1.68
2023-03-17T02:35:47.784Z,1.76
2023-03-17T02:38:14.515Z,1.73
2023-03-17T02:40:41.453Z,1.78
2023-03-17T02:43:08.077Z,1.88
2023-03-17T02:45:34.996Z,1.91
2023-03-17T02:48:01.496Z,1.73
2023-03-17T02:50:28.289Z,1.74
2023-03-17T02:52:57.209Z,1.45
2023-03-17T02:55:23.781Z,1.64
2023-03-17T02:57:53.076Z,1.72
2023-03-17T03:00:19.745Z,1.77
2023-03-17T03:02:47.620Z,1.85
2023-03-17T03:05:14.105Z,1.33
2023-03-17T03:07:40.627Z,1.48
2023-03-17T03:10:07.269Z,1.67
2023-03-17T03:12:33.820Z,1.66
2023-03-17T03:15:02.702Z,1.52
2023-03-17T03:17:29.341Z,1.46
2023-03-17T03:19:55.776Z,1.31
2023-03-17T03:22:22.245Z,1.64
2023-03-17T03:24:49.626Z,1.72
2023-03-17T03:27:16.134Z,1.82
2023-03-17T03:29:42.585Z,1.97
2023-03-17T03:32:09.192Z,1.68
2023-03-17T03:34:35.670Z,1.54
2023-03-17T03:37:02.112Z,1.56
2023-03-17T03:39:29.369Z,1.62
2023-03-17T03:41:56.023Z,1.60
2023-03-17T03:44:22.568Z,1.49
2023-03-17T03:46:49.330Z,1.33
2023-03-17T03:49:16.149Z,1.50
2023-03-17T03:51:42.848Z,1.45
2023-03-17T03:54:09.337Z,1.34
2023-03-17T03:56:35.764Z,1.50
2023-03-17T03:59:03.014Z,1.58
2023-03-17T04:01:29.488Z,1.64
2023-03-17T04:03:56.062Z,1.62
2023-03-17T04:06:22.645Z,1.81
2023-03-17T04:08:49.245Z,1.70
2023-03-17T04:11:15.728Z,1.70
2023-03-17T04:13:42.170Z,1.74
2023-03-17T04:16:08.941Z,1.75
2023-03-17T04:18:35.588Z,1.73
2023-03-17T04:21:02.084Z,1.83
2023-03-17T04:23:29.031Z,1.51
2023-03-17T04:25:55.498Z,1.40
2023-03-17T04:28:21.938Z,1.58
2023-03-17T04:30:48.397Z,1.52
2023-03-17T04:33:14.940Z,1.07
2023-03-17T04:35:41.799Z,0.92
2023-03-17T04:38:08.348Z,1.02
2023-03-17T04:40:34.842Z,1.03
2023-03-17T04:43:03.564Z,1.37
2023-03-17T04:45:30.145Z,1.29
2023-03-17T04:47:56.599Z,0.91
2023-03-17T04:50:23.085Z,0.98
2023-03-17T04:52:49.720Z,1.17
2023-03-17T04:55:16.207Z,1.24
2023-03-17T04:57:42.769Z,1.38
2023-03-17T05:00:09.513Z,1.54
2023-03-17T05:02:36.034Z,1.60
2023-03-17T05:05:02.708Z,1.40
2023-03-17T05:07:29.113Z,1.41
2023-03-17T05:09:55.606Z,1.47
2023-03-17T05:12:22.114Z,1.56
2023-03-17T05:14:48.816Z,1.56
2023-03-17T05:17:15.314Z,1.45
2023-03-17T05:19:46.387Z,1.51
2023-03-17T05:22:12.899Z,1.09
2023-03-17T05:24:39.425Z,1.18
2023-03-17T05:27:06.890Z,1.26
2023-03-17T05:29:33.405Z,1.28
2023-03-17T05:31:59.849Z,1.33
2023-03-17T05:34:26.368Z,1.48
2023-03-17T05:36:52.987Z,1.67
2023-03-17T05:39:19.549Z,1.69
2023-03-17T05:41:46.167Z,1.81
2023-03-17T05:44:12.783Z,1.92
2023-03-17T05:46:39.297Z,1.87
2023-03-17T05:49:05.885Z,1.83
2023-03-17T05:51:32.396Z,1.66
2023-03-17T05:53:59.929Z,1.76
2023-03-17T05:56:26.410Z,1.86
2023-03-17T05:58:54.114Z,1.73
2023-03-17T06:01:21.553Z,1.81
2023-03-17T06:03:48.189Z,1.76
2023-03-17T06:06:14.700Z,1.93
2023-03-17T06:08:42.203Z,1.76
2023-03-17T06:11:09.366Z,1.82
2023-03-17T06:13:35.985Z,2.04
2023-03-17T06:16:02.884Z,1.89
2023-03-17T06:18:29.411Z,1.88
2023-03-17T06:20:56.009Z,2.06
2023-03-17T06:23:23.510Z,2.04
2023-03-17T06:25:50.152Z,2.08
2023-03-17T06:28:16.568Z,2.31
2023-03-17T06:30:43.048Z,2.30
2023-03-17T06:33:09.711Z,2.24
2023-03-17T06:35:36.282Z,2.05
2023-03-17T06:38:02.831Z,2.29
2023-03-17T06:40:29.698Z,1.91
2023-03-17T06:42:56.192Z,1.91
2023-03-17T06:45:22.861Z,2.09
2023-03-17T06:47:49.819Z,2.22
2023-03-17T06:50:17.503Z,2.41
2023-03-17T06:52:46.618Z,2.39
2023-03-17T06:55:13.387Z,2.60
2023-03-17T06:57:40.391Z,2.75
2023-03-17T07:00:06.811Z,2.93
2023-03-17T07:02:34.254Z,2.95
2023-03-17T07:05:00.862Z,2.95
2023-03-17T07:07:27.586Z,3.15
2023-03-17T07:09:54.059Z,3.19
2023-03-17T07:12:20.538Z,3.18
2023-03-17T07:14:47.177Z,3.15
2023-03-17T07:17:14.240Z,3.28
2023-03-17T07:19:40.775Z,3.50
2023-03-17T07:22:07.221Z,3.52
2023-03-17T07:24:33.729Z,3.64
2023-03-17T07:27:01.188Z,3.61
2023-03-17T07:29:27.638Z,3.67
2023-03-17T07:31:54.423Z,3.50
2023-03-17T07:34:20.940Z,3.74
2023-03-17T07:36:47.570Z,3.79
2023-03-17T07:39:14.442Z,4.05
2023-03-17T07:41:42.098Z,4.10
2023-03-17T07:44:08.989Z,4.11
2023-03-17T07:46:36.639Z,4.03
2023-03-17T07:49:04.000Z,3.40
2023-03-17T07:51:30.485Z,3.74
2023-03-17T07:53:56.952Z,3.79
2023-03-17T07:56:25.143Z,3.93
2023-03-17T07:58:53.942Z,3.72
2023-03-17T08:01:20.674Z,3.50
2023-03-17T08:03:47.394Z,4.05
2023-03-17T08:06:13.910Z,3.81
2023-03-17T08:08:41.009Z,4.01
2023-03-17T08:11:09.719Z,4.27
2023-03-17T08:13:36.658Z,4.30
2023-03-17T08:16:03.290Z,4.47
2023-03-17T08:18:29.948Z,4.75
2023-03-17T08:20:56.441Z,5.01
2023-03-17T08:23:25.120Z,5.14
2023-03-17T08:25:54.073Z,5.03
2023-03-17T08:28:20.764Z,4.84
2023-03-17T08:30:51.341Z,4.80
2023-03-17T08:33:18.315Z,4.82
2023-03-17T08:35:46.246Z,4.84
2023-03-17T08:38:12.959Z,5.24
2023-03-17T08:40:39.903Z,5.04
2023-03-17T08:43:06.820Z,5.18
2023-03-17T08:45:33.557Z,5.32
2023-03-17T08:48:00.032Z,5.33
2023-03-17T08:50:27.580Z,5.26
2023-03-17T08:52:56.535Z,5.09
2023-03-17T08:55:23.614Z,5.19
2023-03-17T08:57:50.695Z,5.31
2023-03-17T09:00:17.278Z,5.50
2023-03-17T09:02:45.289Z,5.41
2023-03-17T09:05:12.000Z,5.42
2023-03-17T09:07:38.524Z,5.38
2023-03-17T09:10:05.133Z,5.31
2023-03-17T09:12:33.779Z,5.58
2023-03-17T09:15:00.621Z,5.65
2023-03-17T09:17:27.217Z,5.59
2023-03-17T09:19:53.805Z,5.62
2023-03-17T09:22:20.295Z,5.77
2023-03-17T09:24:46.775Z,5.70
2023-03-17T09:27:13.276Z,5.85
2023-03-17T09:29:40.882Z,5.58
2023-03-17T09:32:07.790Z,5.84
2023-03-17T09:34:34.253Z,5.78
2023-03-17T09:37:01.022Z,5.77
2023-03-17T09:39:27.569Z,6.07
2023-03-17T09:41:55.123Z,5.87
2023-03-17T09:44:21.831Z,5.52
2023-03-17T09:46:48.451Z,5.71
2023-03-17T09:49:15.188Z,5.78
2023-03-17T09:51:43.702Z,5.72
2023-03-17T09:54:10.441Z,5.72
2023-03-17T09:56:36.937Z,5.86
2023-03-17T09:59:03.536Z,5.75
2023-03-17T10:01:30.013Z,5.74
2023-03-17T10:03:56.654Z,5.70
2023-03-17T10:06:23.399Z,5.64
2023-03-17T10:08:50.163Z,5.80
2023-03-17T10:11:16.794Z,5.45
2023-03-17T10:13:43.314Z,5.90
2023-03-17T10:16:09.846Z,6.00
2023-03-17T10:18:36.348Z,5.93
2023-03-17T10:21:02.959Z,5.89
2023-03-17T10:23:29.471Z,6.08
2023-03-17T10:25:56.191Z,5.89
2023-03-17T10:28:22.647Z,6.11
2023-03-17T10:30:49.233Z,6.07
2023-03-17T10:33:16.031Z,6.26
2023-03-17T10:35:42.471Z,6.26
2023-03-17T10:38:14.398Z,6.27
2023-03-17T10:40:42.099Z,6.47
2023-03-17T10:43:10.453Z,6.43
2023-03-17T10:45:40.038Z,6.43
2023-03-17T10:48:07.376Z,6.59
2023-03-17T10:50:34.484Z,6.65
2023-03-17T10:53:01.208Z,6.66
2023-03-17T10:55:27.866Z,6.74
2023-03-17T10:57:54.626Z,6.58
2023-03-17T11:00:21.200Z,6.69
2023-03-17T11:02:47.661Z,6.71
2023-03-17T11:05:14.149Z,6.81
2023-03-17T11:07:40.741Z,7.05
2023-03-17T11:10:07.312Z,6.77
2023-03-17T11:12:33.808Z,6.50
2023-03-17T11:15:00.531Z,6.92
2023-03-17T11:17:27.185Z,7.04
2023-03-17T11:19:54.593Z,7.22
2023-03-17T11:22:21.145Z,7.04
2023-03-17T11:24:48.032Z,7.06
2023-03-17T11:27:18.719Z,7.02
2023-03-17T11:29:46.196Z,6.89
2023-03-17T11:32:12.719Z,7.05
2023-03-17T11:34:39.570Z,7.11
2023-03-17T11:37:06.243Z,7.07
2023-03-17T11:39:32.906Z,7.20
2023-03-17T11:41:59.383Z,7.06
2023-03-17T11:44:25.984Z,7.33
2023-03-17T11:46:52.566Z,7.37
2023-03-17T11:49:19.006Z,7.52
2023-03-17T11:51:45.514Z,7.27
2023-03-17T11:54:12.472Z,7.39
2023-03-17T11:56:38.889Z,7.23
2023-03-17T11:59:05.384Z,7.50
2023-03-17T12:01:32.049Z,7.71
2023-03-17T12:03:58.532Z,7.29
2023-03-17T12:06:25.378Z,7.48
2023-03-17T12:08:51.897Z,7.74
2023-03-17T12:11:18.791Z,8.08
2023-03-17T12:13:48.144Z,8.19
2023-03-17T12:16:14.653Z,7.96
2023-03-17T12:18:41.166Z,8.11
2023-03-17T12:21:07.831Z,8.12
2023-03-17T12:23:34.476Z,8.36
2023-03-17T12:26:00.912Z,8.24
2023-03-17T12:28:27.489Z,8.29
2023-03-17T12:30:53.934Z,8.35
2023-03-17T12:33:20.387Z,8.38
2023-03-17T12:35:47.232Z,8.40
2023-03-17T12:38:14.166Z,8.15
2023-03-17T12:40:40.673Z,8.49
2023-03-17T12:43:07.100Z,8.41
2023-03-17T12:45:34.662Z,8.63
2023-03-17T12:48:01.603Z,8.37
2023-03-17T12:50:28.586Z,8.45
2023-03-17T12:52:55.061Z,8.47
2023-03-17T12:55:21.530Z,8.84
2023-03-17T12:57:47.925Z,8.98
2023-03-17T13:00:17.385Z,9.08
2023-03-17T13:02:44.068Z,8.98
2023-03-17T13:05:10.505Z,8.99
2023-03-17T13:07:37.008Z,8.99
2023-03-17T13:10:03.466Z,9.23
2023-03-17T13:12:29.901Z,9.20
2023-03-17T13:14:56.349Z,9.21
2023-03-17T13:17:22.794Z,9.20
2023-03-17T13:19:49.344Z,9.51
2023-03-17T13:22:16.067Z,9.52
2023-03-17T13:24:42.597Z,9.51
2023-03-17T13:27:09.093Z,9.56
2023-03-17T13:29:35.613Z,9.48
2023-03-17T13:32:02.172Z,9.54
2023-03-17T13:34:29.866Z,9.42
2023-03-17T13:36:56.452Z,9.71
2023-03-17T13:39:24.962Z,9.67
2023-03-17T13:41:51.652Z,9.56
2023-03-17T13:44:18.642Z,9.71
2023-03-17T13:46:45.106Z,9.86
2023-03-17T13:49:11.738Z,10.02
2023-03-17T13:51:40.184Z,9.94
2023-03-17T13:54:10.602Z,10.01
2023-03-17T13:56:37.770Z,10.04
2023-03-17T13:59:04.279Z,10.04
2023-03-17T14:01:30.942Z,10.04
2023-03-17T14:03:57.891Z,10.31
2023-03-17T14:06:24.338Z,10.40
2023-03-17T14:08:51.245Z,10.38
2023-03-17T14:11:20.214Z,10.25
2023-03-17T14:13:48.840Z,10.38
2023-03-17T14:16:15.335Z,10.67
2023-03-17T14:18:44.777Z,10.85
2023-03-17T14:21:11.800Z,10.89
2023-03-17T14:23:38.525Z,10.61
2023-03-17T14:26:05.543Z,10.77
2023-03-17T14:28:33.822Z,10.95
2023-03-17T14:31:02.637Z,10.86
2023-03-17T14:33:29.666Z,10.98
2023-03-17T14:35:56.393Z,10.97
2023-03-17T14:38:23.552Z,11.29
2023-03-17T14:40:51.359Z,11.42
2023-03-17T14:43:18.032Z,11.31
2023-03-17T14:45:44.502Z,11.32
2023-03-17T14:48:11.516Z,11.60
2023-03-17T14:50:37.903Z,11.64
2023-03-17T14:53:05.756Z,11.53
2023-03-17T14:55:32.614Z,11.46
2023-03-17T14:57:59.492Z,11.49
2023-03-17T15:00:26.327Z,11.35
2023-03-17T15:02:55.548Z,11.51
2023-03-17T15:05:21.965Z,11.65
2023-03-17T15:07:49.751Z,11.58
2023-03-17T15:10:16.327Z,11.52
2023-03-17T15:12:42.910Z,11.68
2023-03-17T15:15:09.488Z,11.53
2023-03-17T15:17:36.184Z,11.50
2023-03-17T15:20:03.636Z,11.30
2023-03-17T15:22:30.778Z,11.47
2023-03-17T15:24:57.264Z,11.25
2023-03-17T15:27:23.747Z,11.38
2023-03-17T15:29:50.242Z,11.27
2023-03-17T15:32:19.183Z,11.05
2023-03-17T15:34:45.716Z,11.33
2023-03-17T15:37:12.451Z,11.33
2023-03-17T15:39:39.140Z,11.15
2023-03-17T15:42:05.872Z,11.04
2023-03-17T15:44:32.397Z,10.56
2023-03-17T15:46:58.873Z,10.61
2023-03-17T15:49:26.937Z,10.84
2023-03-17T15:51:55.201Z,10.75
2023-03-17T15:54:23.747Z,10.99
2023-03-17T15:56:50.418Z,10.81
2023-03-17T15:59:19.445Z,11.05
2023-03-17T16:01:46.019Z,11.01
2023-03-17T16:04:12.545Z,11.05
2023-03-17T16:06:39.862Z,10.76
2023-03-17T16:09:06.281Z,10.91
2023-03-17T16:11:32.991Z,10.79
2023-03-17T16:14:00.138Z,10.35
2023-03-17T16:16:26.785Z,10.46
2023-03-17T16:18:53.366Z,10.48
2023-03-17T16:21:19.996Z,10.42
2023-03-17T16:23:47.165Z,10.03
2023-03-17T16:26:16.145Z,10.02
2023-03-17T16:28:43.135Z,9.89
2023-03-17T16:31:09.611Z,9.90
2023-03-17T16:33:38.238Z,9.83
2023-03-17T16:36:04.750Z,10.00
2023-03-17T16:38:31.356Z,9.47
2023-03-17T16:40:57.858Z,9.54
2023-03-17T16:43:25.852Z,9.59
2023-03-17T16:45:55.820Z,9.49
2023-03-17T16:48:22.619Z,9.56
2023-03-17T16:50:51.843Z,9.46
2023-03-17T16:53:19.335Z,9.59
2023-03-17T16:55:46.179Z,9.86
2023-03-17T16:58:12.848Z,10.08
2023-03-17T17:00:40.159Z,10.15
2023-03-17T17:03:07.363Z,10.12
2023-03-17T17:05:34.133Z,9.66
2023-03-17T17:08:01.224Z,9.74
2023-03-17T17:10:27.772Z,9.59
2023-03-17T17:12:54.328Z,9.76
2023-03-17T17:15:20.854Z,9.76
2023-03-17T17:17:47.391Z,9.69
2023-03-17T17:20:13.960Z,9.74
2023-03-17T17:22:40.918Z,9.71
2023-03-17T17:25:08.285Z,9.42
2023-03-17T17:27:35.181Z,9.21
2023-03-17T17:30:01.910Z,9.27
2023-03-17T17:32:28.770Z,9.38
2023-03-17T17:34:55.593Z,9.34
2023-03-17T17:37:23.371Z,9.07
2023-03-17T17:39:51.050Z,8.48
2023-03-17T17:42:17.905Z,8.61
2023-03-17T17:44:45.437Z,8.77
2023-03-17T17:47:12.293Z,8.83
2023-03-17T17:49:39.262Z,8.91
2023-03-17T17:52:06.300Z,9.00
2023-03-17T17:54:33.047Z,8.84
2023-03-17T17:57:00.389Z,8.79
2023-03-17T17:59:27.168Z,8.89
2023-03-17T18:01:55.459Z,8.72
2023-03-17T18:04:22.274Z,8.67
2023-03-17T18:06:49.473Z,8.59
2023-03-17T18:09:16.401Z,8.38
2023-03-17T18:11:43.350Z,8.80
2023-03-17T18:14:10.370Z,8.56
2023-03-17T18:16:37.311Z,8.71
2023-03-17T18:19:04.132Z,8.68
2023-03-17T18:21:32.116Z,8.78
2023-03-17T18:23:59.065Z,8.63
2023-03-17T18:26:26.298Z,8.49
2023-03-17T18:28:53.681Z,8.32
2023-03-17T18:31:20.634Z,8.11
2023-03-17T18:33:49.214Z,8.34
2023-03-17T18:36:20.052Z,8.40
2023-03-17T18:38:47.861Z,8.54
2023-03-17T18:41:14.400Z,8.25
2023-03-17T18:43:41.286Z,7.94
2023-03-17T18:46:08.883Z,8.13
2023-03-17T18:48:36.113Z,8.21
2023-03-17T18:51:03.936Z,8.05
2023-03-17T18:53:31.621Z,8.22
2023-03-17T18:55:59.302Z,8.28
2023-03-17T18:58:26.329Z,8.47
2023-03-17T19:00:52.912Z,8.46
2023-03-17T19:03:20.562Z,8.15
2023-03-17T19:05:47.540Z,8.21
2023-03-17T19:08:14.173Z,8.07
2023-03-17T19:10:41.698Z,8.00
2023-03-17T19:13:10.190Z,7.87
2023-03-17T19:15:36.751Z,7.72
2023-03-17T19:18:04.326Z,8.03
2023-03-17T19:20:33.301Z,8.05
2023-03-17T19:23:00.402Z,7.59
2023-03-17T19:25:27.507Z,7.63
2023-03-17T19:27:55.971Z,7.87
2023-03-17T19:30:23.680Z,7.73
2023-03-17T19:32:51.427Z,7.62
2023-03-17T19:35:18.629Z,7.47
2023-03-17T19:37:46.831Z,7.40
2023-03-17T19:40:13.848Z,7.60
2023-03-17T19:42:41.430Z,7.35
2023-03-17T19:45:07.945Z,7.31
2023-03-17T19:47:34.412Z,7.16
2023-03-17T19:50:01.404Z,6.75
2023-03-17T19:52:28.902Z,6.86
2023-03-17T19:54:58.643Z,7.18
2023-03-17T19:57:25.874Z,7.35
2023-03-17T19:59:53.922Z,7.10
2023-03-17T20:02:21.155Z,6.94
2023-03-17T20:04:48.332Z,6.88
2023-03-17T20:07:14.935Z,6.91
2023-03-17T20:09:41.882Z,6.84
2023-03-17T20:12:10.679Z,7.02
2023-03-17T20:14:37.244Z,6.74
2023-03-17T20:17:03.658Z,7.04
2023-03-17T20:19:31.168Z,7.01
2023-03-17T20:21:58.938Z,6.79
2023-03-17T20:24:26.326Z,6.90
2023-03-17T20:26:53.650Z,7.14
2023-03-17T20:29:20.760Z,7.14
2023-03-17T20:31:47.708Z,6.89
2023-03-17T20:34:15.800Z,6.59
2023-03-17T20:36:42.837Z,6.22
2023-03-17T20:39:09.977Z,6.57
2023-03-17T20:41:39.697Z,6.36
2023-03-17T20:44:06.772Z,6.50
2023-03-17T20:46:33.885Z,6.35
2023-03-17T20:49:02.035Z,6.28
2023-03-17T20:51:29.132Z,6.13
2023-03-17T20:53:57.073Z,6.33
2023-03-17T20:56:24.108Z,6.42
2023-03-17T20:58:51.752Z,6.48
2023-03-17T21:01:21.124Z,6.39
2023-03-17T21:03:55.116Z,6.72
2023-03-17T21:06:26.276Z,6.43
2023-03-17T21:08:53.676Z,6.41
2023-03-17T21:11:20.329Z,6.38
2023-03-17T21:13:46.996Z,6.63
2023-03-17T21:16:13.741Z,6.47
2023-03-17T21:18:40.900Z,6.49
2023-03-17T21:21:07.581Z,6.43
2023-03-17T21:23:34.079Z,6.48
2023-03-17T21:26:00.989Z,6.27
2023-03-17T21:28:28.388Z,6.09
2023-03-17T21:30:55.071Z,6.49
2023-03-17T21:33:22.365Z,6.52
2023-03-17T21:35:48.933Z,6.06
2023-03-17T21:38:15.562Z,5.82
2023-03-17T21:40:42.081Z,5.89
2023-03-17T21:43:10.944Z,6.19
2023-03-17T21:45:39.137Z,5.89
2023-03-17T21:48:08.003Z,6.11
2023-03-17T21:50:34.984Z,5.65
2023-03-17T21:53:02.020Z,5.95
2023-03-17T21:55:31.487Z,6.02
2023-03-17T21:57:57.879Z,5.93
2023-03-17T22:00:25.711Z,5.78
2023-03-17T22:02:53.731Z,5.97
2023-03-17T22:05:22.655Z,5.99
2023-03-17T22:07:49.036Z,5.83
2023-03-17T22:10:15.555Z,5.94
2023-03-17T22:12:42.989Z,5.69
2023-03-17T22:15:09.374Z,5.60
2023-03-17T22:17:35.952Z,5.71
2023-03-17T22:20:04.661Z,5.49
2023-03-17T22:22:31.146Z,5.71
2023-03-17T22:24:57.587Z,5.73
2023-03-17T22:27:25.543Z,5.57
2023-03-17T22:29:52.141Z,5.60
2023-03-17T22:32:18.670Z,5.90
2023-03-17T22:34:45.075Z,5.52
2023-03-17T22:37:11.636Z,5.27
2023-03-17T22:39:38.114Z,5.29
2023-03-17T22:42:05.275Z,5.45
2023-03-17T22:44:31.679Z,5.40
2023-03-17T22:46:58.097Z,5.48
2023-03-17T22:49:24.536Z,5.21
2023-03-17T22:51:51.076Z,5.56
2023-03-17T22:54:17.484Z,5.29
2023-03-17T22:56:44.835Z,5.20
2023-03-17T22:59:13.312Z,5.14
2023-03-17T23:01:41.119Z,5.06
2023-03-17T23:04:09.380Z,5.25
2023-03-17T23:06:36.366Z,5.46
2023-03-17T23:09:02.880Z,5.38
2023-03-17T23:11:29.332Z,5.34
2023-03-17T23:13:55.732Z,4.68
2023-03-17T23:16:22.574Z,4.87
2023-03-17T23:18:49.326Z,4.56
2023-03-17T23:21:15.706Z,4.82
2023-03-17T23:23:42.281Z,4.86
2023-03-17T23:26:09.555Z,5.06
2023-03-17T23:28:37.380Z,5.09
2023-03-17T23:31:03.884Z,5.23
2023-03-17T23:33:31.234Z,5.21
2023-03-17T23:35:57.795Z,5.06
2023-03-17T23:38:24.743Z,5.08
2023-03-17T23:40:51.190Z,4.82
2023-03-17T23:43:20.149Z,4.93
2023-03-17T23:45:46.879Z,4.96
2023-03-17T23:48:13.565Z,5.06
2023-03-17T23:50:40.504Z,5.05
2023-03-17T23:53:07.045Z,5.10
2023-03-17T23:55:33.690Z,5.12
2023-03-17T23:58:00.318Z,4.95
